Time;durP1;ratioP1;P1;durP2;ratioP2;P2;SDS_P1;SDS_P2;PMS_P1;PMS_P2;Temp;Humidity;BMP_temperature;BMP_pressure;BME280_temperature;BME280_humidity;BME280_pressure;Samples;Min_cycle;Max_cycle;Signal;HPM_P1;HPM_P2
2023/01/16 00:01:44;;;;;;;37.03;17.70;;;;;;;2.05;100.00;100419.80;124725;1102;102116;-80
2023/01/16 00:04:15;;;;;;;40.00;17.57;;;;;;;2.09;100.00;100414.05;124601;1102;104182;-80
2023/01/16 00:06:46;;;;;;;35.77;16.77;;;;;;;2.13;100.00;100415.15;124656;1102;102240;-80
2023/01/16 00:09:18;;;;;;;39.27;17.40;;;;;;;2.14;100.00;100407.48;124688;1102;104178;-80
2023/01/16 00:11:49;;;;;;;40.10;17.13;;;;;;;2.18;100.00;100415.46;124817;1102;104188;-81
2023/01/16 00:14:20;;;;;;;36.47;18.00;;;;;;;2.20;100.00;100416.45;124810;1102;103624;-80
2023/01/16 00:16:52;;;;;;;41.97;18.03;;;;;;;2.23;100.00;100406.30;124744;1102;102086;-80
2023/01/16 00:19:23;;;;;;;37.13;16.83;;;;;;;2.24;100.00;100405.52;124573;1102;104185;-81
2023/01/16 00:21:54;;;;;;;37.97;17.00;;;;;;;2.24;100.00;100402.93;124678;1102;104088;-79
2023/01/16 00:24:25;;;;;;;38.23;17.43;;;;;;;2.25;100.00;100405.63;124745;1102;102099;-80
2023/01/16 00:26:56;;;;;;;34.80;15.97;;;;;;;2.26;100.00;100389.30;124683;1102;102122;-81
2023/01/16 00:29:28;;;;;;;35.23;14.83;;;;;;;2.27;100.00;100382.42;124676;1102;104294;-81
2023/01/16 00:31:59;;;;;;;37.07;16.53;;;;;;;2.30;100.00;100380.04;124727;1102;104310;-80
2023/01/16 00:34:30;;;;;;;35.67;16.23;;;;;;;2.32;100.00;100378.44;124594;1102;104198;-81
2023/01/16 00:37:01;;;;;;;35.30;15.63;;;;;;;2.34;100.00;100369.10;124692;1102;104211;-81
2023/01/16 00:39:33;;;;;;;34.95;15.70;;;;;;;2.38;100.00;100380.55;124663;1102;101860;-83
2023/01/16 00:42:04;;;;;;;35.73;16.20;;;;;;;2.39;100.00;100372.00;124708;1102;104277;-80
2023/01/16 00:44:35;;;;;;;33.25;16.00;;;;;;;2.43;100.00;100379.16;124683;1102;104223;-81
2023/01/16 00:47:07;;;;;;;36.33;16.23;;;;;;;2.46;100.00;100374.17;124778;1102;104204;-83
2023/01/16 00:49:38;;;;;;;33.03;16.20;;;;;;;2.48;100.00;100383.85;124746;1102;102646;-80
2023/01/16 00:52:09;;;;;;;34.65;14.95;;;;;;;2.50;100.00;100371.89;124839;1102;101980;-80
2023/01/16 00:54:41;;;;;;;35.90;16.00;;;;;;;2.54;100.00;100375.60;124706;1102;101900;-82
2023/01/16 00:57:12;;;;;;;34.47;15.30;;;;;;;2.58;100.00;100367.21;124751;1102;101999;-81
2023/01/16 00:59:43;;;;;;;36.90;16.30;;;;;;;2.62;100.00;100366.63;124757;1102;104280;-81
2023/01/16 01:02:14;;;;;;;33.50;15.40;;;;;;;2.66;100.00;100352.17;124727;1102;104207;-80
2023/01/16 01:04:46;;;;;;;34.23;15.60;;;;;;;2.69;100.00;100358.44;124759;1102;104185;-80
2023/01/16 01:07:17;;;;;;;31.83;15.57;;;;;;;2.73;100.00;100353.45;124661;1102;101990;-83
2023/01/16 01:09:48;;;;;;;33.23;14.00;;;;;;;2.77;100.00;100352.86;124642;1102;104195;-79
2023/01/16 01:12:19;;;;;;;32.83;15.33;;;;;;;2.79;100.00;100354.77;124839;1102;104182;-81
2023/01/16 01:14:50;;;;;;;31.87;15.23;;;;;;;2.84;100.00;100342.99;124813;1102;101804;-80
2023/01/16 01:17:22;;;;;;;31.87;15.53;;;;;;;2.87;100.00;100337.12;124741;1102;104220;-80
2023/01/16 01:19:53;;;;;;;35.30;13.50;;;;;;;2.91;100.00;100333.02;124679;1102;102093;-79
2023/01/16 01:22:26;;;;;;;31.70;12.60;;;;;;;2.93;100.00;100332.33;124698;1102;104226;-79
2023/01/16 01:24:57;;;;;;;32.93;14.67;;;;;;;2.96;100.00;100313.45;124642;1102;104195;-80
2023/01/16 01:27:28;;;;;;;33.60;15.20;;;;;;;3.00;100.00;100324.12;124673;1102;104220;-81
2023/01/16 01:29:59;;;;;;;32.37;14.23;;;;;;;3.00;100.00;100328.42;124693;1102;102416;-82
2023/01/16 01:32:30;;;;;;;33.93;15.10;;;;;;;3.01;100.00;100317.26;124764;1101;104176;-80
2023/01/16 01:35:02;;;;;;;32.40;14.70;;;;;;;3.03;100.00;100308.75;124555;1102;104176;-79
2023/01/16 01:37:33;;;;;;;33.27;14.67;;;;;;;3.06;100.00;100310.66;124784;1101;104205;-81
2023/01/16 01:40:06;;;;;;;33.13;15.43;;;;;;;3.10;100.00;100306.55;124676;1102;104175;-79
2023/01/16 01:42:44;;;;;;;30.57;14.63;;;;;;;3.11;100.00;100306.64;124646;1102;102063;-79
2023/01/16 01:45:18;;;;;;;34.23;13.70;;;;;;;3.13;100.00;100298.96;124612;1102;104175;-80
2023/01/16 01:47:54;;;;;;;32.63;15.10;;;;;;;3.14;100.00;100283.50;124609;1102;104191;-78
2023/01/16 01:50:35;;;;;;;31.37;14.17;;;;;;;3.15;100.00;100282.71;124659;1102;104252;-79
2023/01/16 01:53:12;;;;;;;32.97;14.40;;;;;;;3.17;100.00;100282.80;124730;1102;104251;-80
2023/01/16 01:55:45;;;;;;;31.20;13.40;;;;;;;3.19;100.00;100276.00;124709;1102;104419;-80
2023/01/16 01:58:21;;;;;;;31.68;13.78;;;;;;;3.21;100.00;100272.72;124729;1102;104073;-79
2023/01/16 02:00:57;;;;;;;32.20;14.60;;;;;;;3.22;100.00;100284.86;124729;1102;102074;-80
2023/01/16 02:03:33;;;;;;;31.27;14.30;;;;;;;3.24;100.00;100278.09;124657;1102;104185;-81
2023/01/16 02:06:11;;;;;;;30.97;13.63;;;;;;;3.26;100.00;100274.67;124633;1102;101887;-79
2023/01/16 02:08:44;;;;;;;31.00;13.90;;;;;;;3.26;100.00;100264.30;124692;1100;104259;-80
2023/01/16 02:11:26;;;;;;;27.98;12.90;;;;;;;3.28;100.00;100260.13;124754;1102;102090;-81
2023/01/16 02:14:00;;;;;;;32.30;14.17;;;;;;;3.30;100.00;100261.10;124759;1102;104204;-79
2023/01/16 02:19:32;;;;;;;28.90;12.10;;;;;;;3.33;100.00;100266.48;124709;1100;104261;-81
2023/01/16 02:22:27;;;;;;;29.37;13.93;;;;;;;3.35;100.00;100259.67;124648;1102;104188;-80
2023/01/16 02:25:35;;;;;;;28.27;12.07;;;;;;;3.35;100.00;100255.41;124735;1102;104278;-80
2023/01/16 02:28:37;;;;;;;29.47;13.70;;;;;;;3.37;100.00;100246.01;124667;1102;104223;-80
2023/01/16 02:31:16;;;;;;;28.63;12.97;;;;;;;3.39;100.00;100246.10;124646;1102;104368;-81
2023/01/16 02:33:59;;;;;;;28.37;13.27;;;;;;;3.40;100.00;100247.91;124783;1102;101833;-81
2023/01/16 02:36:42;;;;;;;29.67;12.60;;;;;;;3.40;100.00;100247.91;124850;1102;104188;-80
2023/01/16 02:39:26;;;;;;;25.70;12.07;;;;;;;3.41;100.00;100249.67;124836;1102;101836;-81
2023/01/16 02:42:06;;;;;;;28.50;12.47;;;;;;;3.45;100.00;100242.99;124706;1101;104057;-80
2023/01/16 02:44:47;;;;;;;28.73;12.37;;;;;;;3.46;100.00;100242.17;124622;1102;104230;-79
2023/01/16 02:47:26;;;;;;;25.40;11.87;;;;;;;3.48;100.00;100228.50;124715;1102;104217;-81
2023/01/16 02:50:10;;;;;;;27.80;13.17;;;;;;;3.49;100.00;100224.19;124741;1102;101928;-82
2023/01/16 02:52:47;;;;;;;26.33;11.90;;;;;;;3.49;100.00;100222.52;124648;1102;108389;-82
2023/01/16 02:55:27;;;;;;;27.83;12.30;;;;;;;3.50;100.00;100224.28;124662;1101;104226;-79
2023/01/16 02:58:01;;;;;;;26.30;11.60;;;;;;;3.52;100.00;100227.89;124706;1102;101913;-81
2023/01/16 03:00:34;;;;;;;25.52;12.23;;;;;;;3.53;100.00;100223.58;124732;1102;102434;-80
2023/01/16 03:03:06;;;;;;;26.53;12.00;;;;;;;3.53;100.00;100219.27;124607;1102;117847;-79
2023/01/16 03:05:48;;;;;;;28.43;13.03;;;;;;;3.54;100.00;100223.67;124614;1102;104329;-80
2023/01/16 03:08:43;;;;;;;28.87;12.43;;;;;;;3.55;100.00;100229.75;124661;1102;104210;-80
2023/01/16 03:11:23;;;;;;;28.00;11.80;;;;;;;3.57;100.00;100226.45;124654;1101;104105;-80
2023/01/16 03:14:06;;;;;;;27.23;11.70;;;;;;;3.60;100.00;100225.75;124648;1102;102186;-80
2023/01/16 03:16:46;;;;;;;26.77;11.88;;;;;;;3.59;100.00;100227.42;124769;1102;104190;-83
2023/01/16 03:19:27;;;;;;;24.83;11.50;;;;;;;3.61;100.00;100224.92;124692;1102;104210;-79
2023/01/16 03:22:12;;;;;;;25.47;11.70;;;;;;;3.63;100.00;100217.23;124717;1102;104261;-80
2023/01/16 03:25:01;;;;;;;24.50;10.70;;;;;;;3.63;100.00;100219.82;124694;1102;101824;-81
2023/01/16 03:27:45;;;;;;;26.30;11.50;;;;;;;3.64;100.00;100216.44;124663;1101;104284;-79
2023/01/16 03:30:25;;;;;;;25.07;10.40;;;;;;;3.65;100.00;100205.27;124676;1102;104264;-77
2023/01/16 03:33:04;;;;;;;25.20;11.47;;;;;;;3.65;100.00;100206.14;124707;1102;102086;-81
2023/01/16 03:35:41;;;;;;;23.77;10.70;;;;;;;3.66;100.00;100194.97;124560;1102;102470;-79
2023/01/16 03:38:17;;;;;;;25.17;11.40;;;;;;;3.68;100.00;100201.13;124652;1102;104281;-78
2023/01/16 03:40:50;;;;;;;25.10;10.63;;;;;;;3.69;100.00;100199.42;124692;1102;101948;-79
2023/01/16 03:43:25;;;;;;;24.23;11.77;;;;;;;3.70;100.00;100207.30;124709;1102;101943;-80
2023/01/16 03:46:01;;;;;;;24.60;11.53;;;;;;;3.70;100.00;100199.52;124633;1102;104261;-79
2023/01/16 03:48:38;;;;;;;25.77;11.37;;;;;;;3.70;100.00;100204.70;124687;1102;104269;-80
2023/01/16 03:51:14;;;;;;;24.97;10.93;;;;;;;3.70;100.00;100206.41;124638;1102;104182;-80
2023/01/16 03:53:51;;;;;;;24.83;11.53;;;;;;;3.71;100.00;100213.37;124619;1102;104208;-80
2023/01/16 03:56:28;;;;;;;24.07;11.33;;;;;;;3.72;100.00;100209.98;124635;1102;102233;-82
2023/01/16 03:58:59;;;;;;;23.63;11.13;;;;;;;3.74;100.00;100205.77;124710;1102;104271;-81
2023/01/16 04:01:38;;;;;;;24.00;11.10;;;;;;;3.75;100.00;100207.56;124806;1102;101965;-79
2023/01/16 04:04:14;;;;;;;23.05;10.20;;;;;;;3.75;100.00;100216.23;124577;1102;111948;-79
2023/01/16 04:06:49;;;;;;;24.13;11.43;;;;;;;3.75;100.00;100205.86;124741;1102;104204;-80
2023/01/16 04:09:27;;;;;;;24.97;10.63;;;;;;;3.76;99.63;100202.47;124668;1102;104427;-81
2023/01/16 04:12:01;;;;;;;25.73;11.63;;;;;;;3.78;100.00;100202.55;124615;1102;104227;-82
2023/01/16 04:14:34;;;;;;;25.05;11.12;;;;;;;3.80;100.00;100206.13;124778;1102;102135;-79
2023/01/16 04:17:06;;;;;;;25.97;11.17;;;;;;;3.81;100.00;100210.52;124741;1102;101820;-81
2023/01/16 04:19:38;;;;;;;26.93;11.97;;;;;;;3.82;100.00;100204.53;124829;1102;101830;-79
2023/01/16 04:22:19;;;;;;;24.27;11.70;;;;;;;3.82;100.00;100198.42;124805;1102;101935;-80
2023/01/16 04:24:51;;;;;;;23.90;11.00;;;;;;;3.82;100.00;100204.53;124664;1102;107164;-81
2023/01/16 04:27:23;;;;;;;23.90;12.00;;;;;;;3.83;100.00;100190.73;124706;1102;102156;-80
2023/01/16 04:29:55;;;;;;;27.40;12.20;;;;;;;3.83;99.88;100188.13;124609;1102;104259;-80
2023/01/16 04:32:26;;;;;;;26.00;12.00;;;;;;;3.85;100.00;100201.20;124674;1102;104233;-80
2023/01/16 04:34:57;;;;;;;26.77;13.07;;;;;;;3.85;99.71;100207.30;124829;1102;104275;-80
2023/01/16 04:37:28;;;;;;;24.67;11.10;;;;;;;3.87;100.00;100203.09;124759;1102;101794;-80
2023/01/16 04:40:00;;;;;;;25.70;11.53;;;;;;;3.89;99.83;100205.77;124897;1102;104243;-78
2023/01/16 04:42:31;;;;;;;23.90;11.53;;;;;;;3.88;99.98;100197.10;124743;1102;104252;-80
2023/01/16 04:45:02;;;;;;;25.17;11.67;;;;;;;3.90;100.00;100207.57;124577;1102;104188;-79
2023/01/16 04:47:34;;;;;;;24.83;11.50;;;;;;;3.89;99.85;100206.66;124690;1102;101971;-79
2023/01/16 04:50:06;;;;;;;24.77;11.47;;;;;;;3.91;100.00;100198.95;124677;1102;104242;-77
2023/01/16 04:52:37;;;;;;;27.43;11.97;;;;;;;3.90;100.00;100197.19;124771;1102;102035;-78
2023/01/16 04:55:10;;;;;;;24.17;11.33;;;;;;;3.89;99.79;100192.80;124680;1102;104185;-79
2023/01/16 04:57:41;;;;;;;23.43;10.47;;;;;;;3.88;99.81;100194.50;124764;1102;104233;-79
2023/01/16 05:00:14;;;;;;;24.90;11.77;;;;;;;3.89;100.00;100193.67;124725;1102;104370;-78
2023/01/16 05:02:46;;;;;;;26.67;11.83;;;;;;;3.88;100.00;100186.72;124773;1102;104354;-79
2023/01/16 05:05:17;;;;;;;26.47;12.17;;;;;;;3.87;99.90;100187.52;124741;1102;104204;-81
2023/01/16 05:08:15;;;;;;;26.90;12.10;;;;;;;3.86;100.00;100188.31;124775;1102;104294;-79
2023/01/16 05:10:40;;;;;;;26.00;12.00;;;;;;;3.86;100.00;100190.02;125049;1102;102233;-78
2023/01/16 05:13:11;;;;;;;26.70;12.27;;;;;;;3.86;99.81;100195.21;125003;1100;102108;-80
2023/01/16 05:15:45;;;;;;;24.53;11.77;;;;;;;3.85;99.80;100186.54;124882;1102;108576;-79
2023/01/16 05:18:16;;;;;;;24.80;11.60;;;;;;;3.85;99.61;100191.73;125104;1102;102332;-82
2023/01/16 05:20:47;;;;;;;26.03;12.83;;;;;;;3.85;99.64;100186.54;125134;1102;104249;-78
2023/01/16 05:23:19;;;;;;;25.40;12.57;;;;;;;3.84;99.45;100179.55;124912;1101;101869;-79
2023/01/16 05:25:50;;;;;;;28.03;12.80;;;;;;;3.86;100.00;100184.83;125063;1102;104208;-80
2023/01/16 05:28:22;;;;;;;26.53;12.93;;;;;;;3.84;99.56;100184.74;125003;1102;104128;-78
2023/01/16 05:30:53;;;;;;;28.07;12.67;;;;;;;3.83;99.42;100187.25;124957;1102;104185;-80
2023/01/16 05:33:24;;;;;;;24.43;12.23;;;;;;;3.81;99.86;100179.37;124923;1102;101874;-79
2023/01/16 05:35:55;;;;;;;26.27;12.40;;;;;;;3.81;100.00;100181.97;124842;1102;104248;-81
2023/01/16 05:38:27;;;;;;;27.93;13.07;;;;;;;3.82;100.00;100178.58;124966;1102;103596;-79
2023/01/16 05:40:58;;;;;;;27.07;12.73;;;;;;;3.82;99.26;100170.80;124804;1102;101932;-78
2023/01/16 05:43:29;;;;;;;27.17;13.20;;;;;;;3.81;99.78;100176.78;124911;1102;104232;-76
2023/01/16 05:46:02;;;;;;;25.87;12.20;;;;;;;3.81;99.81;100166.39;124716;1101;104125;-80
2023/01/16 05:48:35;;;;;;;25.13;12.23;;;;;;;3.81;99.64;100176.78;124814;1102;104258;-79
2023/01/16 05:51:07;;;;;;;25.87;12.60;;;;;;;3.81;99.62;100168.98;124981;1102;104392;-75
2023/01/16 05:53:38;;;;;;;28.07;14.00;;;;;;;3.78;99.35;100174.00;124873;1102;102180;-79
2023/01/16 05:56:12;;;;;;;29.23;12.87;;;;;;;3.74;99.13;100170.34;125017;1102;101874;-78
2023/01/16 05:58:43;;;;;;;29.02;13.60;;;;;;;3.72;99.88;100178.84;125233;1102;102305;-79
2023/01/16 06:01:14;;;;;;;27.57;13.67;;;;;;;3.73;99.46;100170.26;125146;1102;104191;-76
2023/01/16 06:03:45;;;;;;;30.23;13.60;;;;;;;3.74;99.27;100178.13;124883;1102;102509;-76
2023/01/16 06:06:17;;;;;;;28.40;13.37;;;;;;;3.75;99.54;100173.83;124768;1102;104073;-74
2023/01/16 06:08:48;;;;;;;28.07;12.27;;;;;;;3.76;100.00;100180.81;124826;1102;104277;-76
2023/01/16 06:11:19;;;;;;;26.60;13.00;;;;;;;3.78;99.57;100174.00;124773;1102;105057;-77
2023/01/16 06:13:50;;;;;;;29.07;13.30;;;;;;;3.76;99.83;100179.11;124791;1102;104198;-78
2023/01/16 06:16:22;;;;;;;27.83;13.43;;;;;;;3.79;100.00;100178.40;125188;1102;103699;-77
2023/01/16 06:18:54;;;;;;;28.20;13.77;;;;;;;3.79;99.79;100175.80;124989;1102;102751;-77
2023/01/16 06:21:25;;;;;;;25.83;11.97;;;;;;;3.80;99.71;100182.77;124608;1100;102224;-79
2023/01/16 06:23:56;;;;;;;28.05;13.40;;;;;;;3.82;100.00;100178.58;125003;1102;104274;-76
2023/01/16 06:26:28;;;;;;;27.30;13.53;;;;;;;3.85;99.45;100180.43;124820;1102;104163;-75
2023/01/16 06:28:59;;;;;;;25.37;11.73;;;;;;;3.86;99.85;100175.33;124370;1105;103174;-76
2023/01/16 06:31:30;;;;;;;29.10;14.17;;;;;;;3.85;99.62;100176.16;124410;1102;103291;-76
2023/01/16 06:34:02;;;;;;;26.77;13.07;;;;;;;3.86;100.00;100172.73;124941;1102;102569;-75
2023/01/16 06:36:33;;;;;;;27.23;13.50;;;;;;;3.88;99.78;100175.41;124375;1102;104239;-76
2023/01/16 06:39:04;;;;;;;29.47;13.03;;;;;;;3.89;99.70;100174.62;124593;1102;102776;-75
2023/01/16 06:41:36;;;;;;;27.47;12.50;;;;;;;3.88;99.45;100173.73;124520;1102;103602;-77
2023/01/16 06:44:07;;;;;;;29.13;14.00;;;;;;;3.89;99.70;100174.62;124681;1102;103105;-75
2023/01/16 06:46:39;;;;;;;27.50;13.23;;;;;;;3.87;99.29;100171.94;124462;1102;102256;-78
2023/01/16 06:49:13;;;;;;;28.93;14.30;;;;;;;3.89;99.44;100162.53;124364;1102;104700;-76
2023/01/16 06:51:44;;;;;;;27.50;12.77;;;;;;;3.91;100.00;100171.31;124554;1102;102551;-76
2023/01/16 06:54:16;;;;;;;28.27;13.37;;;;;;;3.94;99.82;100163.70;124367;1102;102991;-77
2023/01/16 06:56:51;;;;;;;29.20;14.40;;;;;;;3.98;99.91;100169.07;124582;1102;102938;-76
2023/01/16 06:59:27;;;;;;;28.47;14.05;;;;;;;4.02;99.82;100155.44;124828;1102;102244;-78
2023/01/16 07:02:03;;;;;;;29.30;14.43;;;;;;;4.03;98.87;100155.52;124973;1102;103349;-76
2023/01/16 07:04:36;;;;;;;28.93;14.60;;;;;;;4.02;99.08;100158.03;124797;1102;102433;-76
2023/01/16 07:07:10;;;;;;;29.27;13.50;;;;;;;4.01;98.86;100158.86;124651;1102;102592;-77
2023/01/16 07:09:45;;;;;;;30.23;14.40;;;;;;;4.03;99.52;100158.12;124773;1102;103720;-78
2023/01/16 07:12:22;;;;;;;28.27;13.70;;;;;;;4.06;99.02;100162.59;124668;1103;102322;-77
2023/01/16 07:23:39;;;;;;;28.93;14.23;;;;;;;4.09;99.73;100144.59;124945;1102;102184;-77
2023/01/16 07:26:13;;;;;;;30.87;14.50;;;;;;;4.14;98.88;100150.93;125152;1102;102791;-77
2023/01/16 07:28:53;;;;;;;28.53;13.50;;;;;;;4.16;98.75;100151.94;125216;1102;102231;-77
2023/01/16 07:31:30;;;;;;;31.23;14.87;;;;;;;4.17;99.20;100140.71;125101;1102;102377;-78
2023/01/16 07:34:02;;;;;;;29.43;14.70;;;;;;;4.16;99.09;100144.14;124972;1102;102066;-78
2023/01/16 07:36:36;;;;;;;29.80;14.50;;;;;;;4.19;99.31;100145.99;125291;1102;102269;-77
2023/01/16 07:39:17;;;;;;;29.40;14.13;;;;;;;4.22;99.21;100141.84;125107;1105;104204;-77
2023/01/16 07:41:52;;;;;;;27.13;13.57;;;;;;;4.24;99.25;100142.85;125493;1102;102844;-77
2023/01/16 07:44:23;;;;;;;28.77;13.73;;;;;;;4.26;99.12;100153.33;125301;1102;103651;-78
2023/01/16 07:46:55;;;;;;;29.30;13.77;;;;;;;4.28;98.87;100149.09;124812;1102;103049;-78
2023/01/16 07:49:28;;;;;;;29.83;13.47;;;;;;;4.35;99.14;100152.92;125279;1102;104556;-77
2023/01/16 07:52:01;;;;;;;29.57;15.17;;;;;;;4.37;99.16;100156.52;125125;1102;102686;-77
2023/01/16 07:54:35;;;;;;;30.00;14.73;;;;;;;4.42;99.24;100160.25;125505;1102;104203;-77
2023/01/16 07:57:09;;;;;;;31.80;15.10;;;;;;;4.44;98.99;100146.55;125503;1096;101795;-77
2023/01/16 07:59:45;;;;;;;26.12;12.68;;;;;;;4.45;98.85;100150.91;125512;1102;104003;-76
2023/01/16 08:02:16;;;;;;;;;;;;;;;4.42;98.71;100142.06;125497;1101;102164;-76
2023/01/16 08:04:54;;;;;;;28.47;13.50;;;;;;;4.42;99.09;100148.14;125282;1102;102462;-76
2023/01/16 08:07:25;;;;;;;29.35;13.32;;;;;;;4.44;99.30;100159.53;125169;1102;103277;-76
2023/01/16 08:09:59;;;;;;;25.93;12.13;;;;;;;4.46;99.61;100149.23;125319;1102;102089;-77
2023/01/16 08:12:31;;;;;;;27.22;12.53;;;;;;;4.49;99.44;100145.08;125109;1102;104011;-77
2023/01/16 08:15:03;;;;;;;25.60;11.87;;;;;;;4.56;99.71;100138.50;125250;1102;102981;-77
2023/01/16 08:17:39;;;;;;;28.57;13.03;;;;;;;4.64;99.46;100142.43;125388;1101;102571;-75
2023/01/16 08:20:12;;;;;;;26.50;12.07;;;;;;;4.71;99.04;100141.05;125304;1102;102783;-75
2023/01/16 08:22:51;;;;;;;23.97;11.87;;;;;;;4.76;99.29;100131.77;125247;1102;102846;-77
2023/01/16 08:25:34;;;;;;;28.37;13.43;;;;;;;4.83;99.27;100139.09;125188;1102;104179;-76
2023/01/16 08:28:06;;;;;;;26.80;12.70;;;;;;;4.89;99.59;100141.10;124969;1102;104175;-77
2023/01/16 08:30:39;;;;;;;25.10;11.80;;;;;;;4.93;99.33;100135.27;125209;1102;102926;-78
2023/01/16 08:33:14;;;;;;;24.57;11.73;;;;;;;4.92;98.46;100128.27;125437;1101;102146;-76
2023/01/16 08:35:48;;;;;;;24.50;11.63;;;;;;;4.92;98.64;100132.58;125494;1102;102255;-75
2023/01/16 08:38:19;;;;;;;25.80;12.20;;;;;;;4.96;98.97;100134.54;126513;1093;104027;-75
2023/01/16 08:40:52;;;;;;;26.87;13.00;;;;;;;5.00;99.54;100126.06;124920;1102;104179;-75
2023/01/16 08:52:11;;;;;;;24.37;11.00;;;;;;;5.12;98.31;100097.20;125085;1102;102757;-77
2023/01/16 08:54:46;;;;;;;24.43;11.50;;;;;;;5.13;98.84;100097.29;126028;1102;101962;-78
2023/01/16 08:57:23;;;;;;;24.60;11.60;;;;;;;5.22;99.33;100092.55;125837;1102;102840;-78
2023/01/16 08:59:56;;;;;;;24.00;10.47;;;;;;;5.32;98.94;100080.89;125845;1105;101801;-76
2023/01/16 09:02:32;;;;;;;26.47;11.83;;;;;;;5.36;98.07;100071.52;125908;1102;102741;-75
2023/01/16 09:05:06;;;;;;;24.03;11.83;;;;;;;5.40;98.07;100076.07;125746;1102;102895;-77
2023/01/16 09:07:47;;;;;;;22.67;11.40;;;;;;;5.46;98.58;100072.89;125798;1102;102936;-77
2023/01/16 09:10:24;;;;;;;21.80;10.60;;;;;;;5.48;97.59;100068.64;125884;1101;102472;-76
2023/01/16 09:15:46;;;;;;;22.23;10.87;;;;;;;5.48;98.37;100063.44;125895;1102;102224;-76
2023/01/16 09:18:21;;;;;;;22.23;11.50;;;;;;;5.48;98.27;100071.25;126033;1102;102822;-76
2023/01/16 09:20:56;;;;;;;24.73;11.50;;;;;;;5.48;97.90;100068.64;125330;1102;102738;-76
2023/01/16 09:23:29;;;;;;;24.27;12.00;;;;;;;5.47;97.67;100066.84;124679;1105;102198;-77
2023/01/16 09:26:01;;;;;;;26.10;12.13;;;;;;;5.44;97.75;100061.48;124630;1102;102217;-76
2023/01/16 09:28:33;;;;;;;23.90;12.90;;;;;;;5.42;98.14;100060.53;124737;1102;104277;-77
2023/01/16 09:31:18;;;;;;;25.40;11.45;;;;;;;5.43;97.81;100059.73;124927;1102;103485;-77
2023/01/16 09:34:21;;;;;;;23.53;10.97;;;;;;;5.46;98.20;100055.55;125269;1096;102662;-77
2023/01/16 09:36:58;;;;;;;22.37;10.67;;;;;;;5.49;98.08;100049.63;124947;1102;103333;-79
2023/01/16 09:39:30;;;;;;;23.25;12.20;;;;;;;5.50;98.25;100040.97;125115;1102;103347;-76
2023/01/16 09:45:14;;;;;;;22.90;11.43;;;;;;;5.56;97.81;100039.58;125564;1095;102253;-77
2023/01/16 09:47:51;;;;;;;22.73;11.23;;;;;;;5.57;97.98;100035.26;125373;1102;102002;-77
2023/01/16 09:50:39;;;;;;;22.20;11.40;;;;;;;5.60;98.15;100031.92;125002;1102;102408;-77
2023/01/16 09:59:13;;;;;;;20.33;10.30;;;;;;;5.80;98.25;100028.55;124929;1102;102050;-77
2023/01/16 10:01:49;;;;;;;24.00;11.27;;;;;;;5.84;98.05;100030.45;124837;1102;103299;-78
2023/01/16 10:04:24;;;;;;;21.70;11.10;;;;;;;5.87;97.64;100016.70;125023;1102;103292;-75
2023/01/16 10:07:11;;;;;;;21.10;10.90;;;;;;;5.89;97.82;100013.36;125076;1101;102622;-78
2023/01/16 10:09:53;;;;;;;22.03;10.60;;;;;;;5.91;97.59;100009.10;125094;1102;103170;-83
2023/01/16 10:12:37;;;;;;;22.27;10.93;;;;;;;5.98;97.57;100001.61;125085;1102;103811;-76
2023/01/16 10:15:22;;;;;;;23.17;10.30;;;;;;;6.03;97.67;100003.62;124981;1102;102189;-81
2023/01/16 10:18:12;;;;;;;19.33;9.60;;;;;;;6.08;97.56;100004.70;125489;1102;101860;-79
2023/01/16 10:21:12;;;;;;;21.73;10.43;;;;;;;6.15;97.91;99999.78;125664;1102;103020;-82
2023/01/16 10:23:54;;;;;;;21.03;10.40;;;;;;;6.21;97.65;99992.24;125716;1102;102551;-78
2023/01/16 10:26:31;;;;;;;19.83;9.80;;;;;;;6.22;96.52;100000.13;125041;1102;102908;-78
2023/01/16 10:29:19;;;;;;;18.33;8.90;;;;;;;6.20;95.93;100006.08;124706;1102;104306;-79
2023/01/16 10:32:03;;;;;;;20.93;9.87;;;;;;;6.22;95.74;99994.91;124844;1102;101829;-78
2023/01/16 10:34:41;;;;;;;19.33;9.80;;;;;;;6.27;95.81;99977.77;124962;1102;111457;-80
2023/01/16 10:37:16;;;;;;;19.37;8.90;;;;;;;6.33;94.37;99973.64;124781;1102;102431;-78
2023/01/16 10:39:51;;;;;;;23.07;11.00;;;;;;;6.39;95.44;99967.00;124810;1102;102837;-78
2023/01/16 10:51:09;;;;;;;18.27;8.90;;;;;;;6.60;93.07;99924.44;125469;1102;102398;-77
2023/01/16 10:53:42;;;;;;;18.30;9.20;;;;;;;6.57;94.25;99919.09;125341;1101;103088;-78
2023/01/16 10:56:14;;;;;;;18.93;9.43;;;;;;;6.63;94.07;99941.09;124874;1102;104213;-78
2023/01/16 10:58:51;;;;;;;21.90;10.40;;;;;;;6.63;95.09;99927.17;125727;1102;101879;-77
2023/01/16 11:01:41;;;;;;;22.17;10.63;;;;;;;6.64;94.73;99926.36;125093;1105;104184;-77
2023/01/16 11:04:21;;;;;;;19.43;9.27;;;;;;;6.63;92.97;99917.63;125153;1102;102349;-76
2023/01/16 11:07:15;;;;;;;19.53;9.83;;;;;;;6.66;94.21;99919.48;125399;1102;102575;-76
2023/01/16 11:09:48;;;;;;;18.63;9.23;;;;;;;6.72;94.10;99924.95;125418;1102;102135;-78
2023/01/16 11:18:58;;;;;;;22.27;10.00;;;;;;;6.81;92.88;99907.08;124873;1104;104287;-78
2023/01/16 11:21:40;;;;;;;18.87;9.33;;;;;;;6.83;92.05;99902.81;124880;1105;104162;-76
2023/01/16 11:24:19;;;;;;;19.87;9.80;;;;;;;6.91;92.98;99907.46;124991;1102;103469;-77
2023/01/16 11:26:53;;;;;;;18.57;8.80;;;;;;;6.96;91.95;99893.76;125080;1102;102039;-78
2023/01/16 11:29:35;;;;;;;18.53;8.60;;;;;;;6.98;91.96;99894.73;124820;1103;102758;-78
2023/01/16 11:32:12;;;;;;;21.07;9.30;;;;;;;7.01;92.70;99900.08;125081;1103;104309;-78
2023/01/16 11:35:15;;;;;;;19.73;9.23;;;;;;;7.05;92.30;99890.64;125272;1102;103930;-79
2023/01/16 11:37:57;;;;;;;18.50;9.80;;;;;;;7.08;92.01;99888.16;125510;1106;108718;-79
2023/01/16 11:40:45;;;;;;;17.17;8.60;;;;;;;7.14;92.14;99885.80;125720;1102;102502;-80
2023/01/16 11:46:34;;;;;;;19.47;9.13;;;;;;;7.22;91.46;99875.66;125218;1102;103126;-78
2023/01/16 11:49:25;;;;;;;19.85;9.00;;;;;;;7.27;91.11;99876.72;125060;1102;104061;-78
2023/01/16 11:52:26;;;;;;;20.47;10.23;;;;;;;7.33;92.81;99878.69;125035;1102;102690;-78
2023/01/16 11:55:03;;;;;;;17.07;8.65;;;;;;;7.41;91.94;99865.93;125222;1102;102524;-80
2023/01/16 11:57:52;;;;;;;19.27;8.50;;;;;;;7.48;91.16;99867.92;124856;1102;104245;-76
2023/01/16 12:00:48;;;;;;;20.27;9.57;;;;;;;7.48;91.16;99858.39;125009;1102;102893;-77
2023/01/16 12:03:45;;;;;;;16.90;7.90;;;;;;;7.47;89.42;99855.72;124813;1102;102294;-77
2023/01/16 12:06:31;;;;;;;18.50;8.53;;;;;;;7.47;89.92;99847.89;125060;1102;103116;-78
2023/01/16 12:09:40;;;;;;;16.30;7.63;;;;;;;7.47;90.46;99856.60;125050;1102;102362;-76
2023/01/16 12:15:39;;;;;;;17.67;8.87;;;;;;;7.45;90.84;99836.48;124878;1105;103407;-80
2023/01/16 12:18:21;;;;;;;21.47;10.33;;;;;;;7.43;90.23;99833.81;124889;1102;104380;-79
2023/01/16 12:21:01;;;;;;;21.50;10.50;;;;;;;7.41;90.51;99830.27;125030;1102;103423;-77
2023/01/16 12:23:47;;;;;;;21.77;9.60;;;;;;;7.44;90.54;99830.38;124835;1102;104354;-80
2023/01/16 12:26:27;;;;;;;20.67;9.00;;;;;;;7.48;90.41;99833.98;124866;1103;103249;-78
2023/01/16 12:29:20;;;;;;;20.60;9.87;;;;;;;7.52;91.10;99839.38;124833;1105;104191;-77
2023/01/16 12:32:21;;;;;;;20.13;9.87;;;;;;;7.59;91.01;99829.16;125018;1102;102387;-80
2023/01/16 12:35:23;;;;;;;18.97;8.67;;;;;;;7.63;91.09;99837.17;125141;1102;104311;-77